Time;durP1;ratioP1;P1;durP2;ratioP2;P2;SDS_P1;SDS_P2;PMS_P1;PMS_P2;Temp;Humidity;BMP_temperature;BMP_pressure;BME280_temperature;BME280_humidity;BME280_pressure;Samples;Min_cycle;Max_cycle;Signal;HPM_P1;HPM_P2
2022/05/07 00:01:39;;;;;;;22.20;15.60;;;;;;;13.02;51.04;100659.92;107462;1276;93276;-80
2022/05/07 00:04:11;;;;;;;24.10;15.40;;;;;;;12.97;51.06;100657.64;107456;1274;137420;-76
2022/05/07 00:06:43;;;;;;;21.80;15.50;;;;;;;12.94;51.14;100658.11;107450;1274;109757;-79
2022/05/07 00:09:16;;;;;;;22.40;15.50;;;;;;;12.92;51.15;100659.05;107467;1274;137825;-79
2022/05/07 00:11:48;;;;;;;25.30;15.70;;;;;;;12.85;51.31;100657.35;107518;1275;108905;-79
2022/05/07 00:14:20;;;;;;;27.60;16.90;;;;;;;12.82;51.43;100658.16;106252;1276;95169;-79
2022/05/07 00:19:42;;;;;;;26.40;17.00;;;;;;;12.76;51.58;100662.58;106379;1274;109720;-78
2022/05/07 00:22:15;;;;;;;29.40;17.90;;;;;;;12.73;51.67;100663.02;107269;1274;141795;-78
2022/05/07 00:24:48;;;;;;;29.30;17.70;;;;;;;12.69;51.84;100664.00;107731;1270;108981;-78
2022/05/07 00:27:20;;;;;;;26.10;17.60;;;;;;;12.63;51.93;100669.81;107577;1270;140077;-79
2022/05/07 00:29:52;;;;;;;31.40;18.50;;;;;;;12.55;52.12;100672.69;107293;1270;96315;-78
2022/05/07 00:32:24;;;;;;;30.30;19.70;;;;;;;12.46;52.19;100676.66;106357;1271;111128;-79
2022/05/07 00:34:56;;;;;;;28.30;18.50;;;;;;;12.38;52.51;100670.48;107721;1271;107685;-78
2022/05/07 00:37:28;;;;;;;30.70;18.30;;;;;;;12.31;52.70;100671.57;106678;1271;109015;-77
2022/05/07 00:40:00;;;;;;;27.90;19.70;;;;;;;12.25;52.88;100672.48;106044;1271;137955;-78
2022/05/07 00:42:33;;;;;;;27.70;18.80;;;;;;;12.16;53.06;100670.15;106210;1273;96560;-78
2022/05/07 00:45:06;;;;;;;27.90;18.40;;;;;;;12.08;53.24;100670.56;106081;1271;138452;-77
2022/05/07 00:47:39;;;;;;;26.50;18.80;;;;;;;12.01;53.34;100668.52;107361;1271;108914;-78
2022/05/07 00:53:03;;;;;;;26.60;17.10;;;;;;;11.90;53.73;100667.48;107726;1271;94769;-78
2022/05/07 00:55:35;;;;;;;22.50;15.90;;;;;;;11.88;53.89;100663.36;107656;1271;94409;-78
2022/05/07 00:58:08;;;;;;;28.30;17.10;;;;;;;11.90;54.02;100660.17;107677;1271;138069;-78
2022/05/07 01:00:40;;;;;;;30.00;17.30;;;;;;;11.90;53.99;100660.17;106498;1271;109309;-78
2022/05/07 01:03:13;;;;;;;23.40;17.40;;;;;;;11.87;54.11;100659.90;106003;1273;138037;-78
2022/05/07 01:05:45;;;;;;;25.50;17.20;;;;;;;11.88;54.16;100659.69;106218;1273;98830;-76
2022/05/07 01:08:18;;;;;;;25.80;18.10;;;;;;;11.87;54.24;100656.24;106354;1270;96538;-77
2022/05/07 01:10:51;;;;;;;28.20;18.20;;;;;;;11.86;54.42;100656.98;106161;1270;137765;-78
2022/05/07 01:13:25;;;;;;;31.40;18.40;;;;;;;11.84;54.44;100655.27;106299;1270;108926;-77
2022/05/07 01:15:59;;;;;;;27.30;18.70;;;;;;;11.82;54.48;100652.03;106093;1271;138005;-77
2022/05/07 01:18:35;;;;;;;31.70;17.90;;;;;;;11.79;54.76;100651.77;106171;1271;96462;-76
2022/05/07 01:21:12;;;;;;;30.20;19.00;;;;;;;11.79;54.99;100652.30;106079;1271;138156;-77
2022/05/07 01:23:47;;;;;;;36.20;20.30;;;;;;;11.78;55.07;100648.14;106484;1271;111337;-77
2022/05/07 01:26:21;;;;;;;33.50;21.10;;;;;;;11.75;55.23;100649.27;106156;1271;108761;-77
2022/05/07 01:29:01;;;;;;;30.30;20.00;;;;;;;11.73;55.29;100648.96;106025;1271;138547;-77
2022/05/07 01:31:34;;;;;;;31.00;20.00;;;;;;;11.69;55.23;100650.33;106200;1271;96489;-77
2022/05/07 01:34:07;;;;;;;30.60;19.00;;;;;;;11.65;55.25;100643.83;107670;1271;137841;-77
2022/05/07 01:36:41;;;;;;;24.00;19.00;;;;;;;11.60;55.38;100647.11;107304;1271;111273;-76
2022/05/07 01:39:16;;;;;;;25.40;17.90;;;;;;;11.56;55.59;100640.80;106065;1271;140113;-77
2022/05/07 01:41:48;;;;;;;28.00;17.20;;;;;;;11.54;55.67;100640.16;106220;1271;109058;-77
2022/05/07 01:44:20;;;;;;;25.60;17.30;;;;;;;11.55;55.79;100638.90;106128;1271;96482;-77
2022/05/07 01:49:43;;;;;;;25.00;17.30;;;;;;;11.66;55.88;100635.59;107812;1270;110188;-77
2022/05/07 01:52:15;;;;;;;22.40;15.60;;;;;;;11.71;55.80;100635.11;107092;1271;138430;-77
2022/05/07 01:54:49;;;;;;;24.40;15.80;;;;;;;11.75;55.88;100637.92;106202;1271;108976;-77
2022/05/07 01:57:22;;;;;;;24.50;15.30;;;;;;;11.80;55.96;100631.17;106062;1270;138622;-77
2022/05/07 01:59:54;;;;;;;22.60;14.80;;;;;;;11.89;55.96;100625.86;107782;1271;95416;-77
2022/05/07 02:02:26;;;;;;;25.90;17.20;;;;;;;11.99;55.88;100621.70;107713;1271;110127;-78
2022/05/07 02:04:59;;;;;;;26.40;16.50;;;;;;;12.03;55.66;100622.63;107587;1273;108741;-77
2022/05/07 02:07:31;;;;;;;19.30;14.30;;;;;;;12.09;56.02;100621.04;107735;1270;106489;-78
2022/05/07 02:10:03;;;;;;;24.70;15.90;;;;;;;12.18;56.01;100624.77;107663;1271;138448;-78
2022/05/07 02:12:36;;;;;;;20.80;14.80;;;;;;;12.23;56.01;100622.34;107729;1271;94817;-78
2022/05/07 02:15:09;;;;;;;31.00;19.40;;;;;;;12.29;55.71;100619.84;106992;1272;137841;-77
2022/05/07 02:17:42;;;;;;;24.00;17.80;;;;;;;12.26;55.51;100614.04;106458;1273;108075;-78
2022/05/07 02:20:16;;;;;;;26.70;19.20;;;;;;;12.22;55.55;100611.38;106157;1271;108929;-78
2022/05/07 02:22:48;;;;;;;36.40;22.90;;;;;;;12.18;55.48;100617.27;106070;1271;138218;-77
2022/05/07 02:25:21;;;;;;;29.50;19.00;;;;;;;12.13;55.64;100624.91;106200;1271;96756;-77
2022/05/07 02:27:55;;;;;;;34.40;21.70;;;;;;;12.06;55.54;100620.59;106062;1271;138272;-78
2022/05/07 02:30:28;;;;;;;31.50;20.70;;;;;;;11.97;55.51;100620.90;107744;1271;107541;-78
2022/05/07 02:33:03;;;;;;;29.50;20.30;;;;;;;11.89;55.60;100624.83;107550;1271;139595;-79
2022/05/07 02:35:37;;;;;;;30.20;21.10;;;;;;;11.81;55.72;100618.80;107657;1272;95316;-79
2022/05/07 02:38:09;;;;;;;37.30;22.40;;;;;;;11.72;55.73;100617.47;107737;1271;94576;-79
2022/05/07 02:43:35;;;;;;;33.30;19.70;;;;;;;11.59;56.09;100623.44;107666;1273;108328;-79
2022/05/07 02:46:10;;;;;;;29.80;19.60;;;;;;;11.57;56.25;100624.20;107618;1271;138947;-78
2022/05/07 02:48:45;;;;;;;26.70;19.10;;;;;;;11.58;56.38;100631.50;107684;1271;95077;-79
2022/05/07 02:51:19;;;;;;;33.90;21.70;;;;;;;11.59;56.37;100633.04;106964;1271;138147;-78
2022/05/07 02:53:51;;;;;;;30.40;21.10;;;;;;;11.59;56.45;100631.62;106248;1271;111222;-78
2022/05/07 02:56:23;;;;;;;36.50;22.00;;;;;;;11.57;56.56;100633.44;106976;1271;108369;-78
2022/05/07 02:58:55;;;;;;;33.80;22.10;;;;;;;11.57;56.57;100634.67;106500;1273;108866;-78
2022/05/07 03:01:28;;;;;;;32.80;22.40;;;;;;;11.55;56.60;100633.15;107256;1271;94985;-79
2022/05/07 03:04:00;;;;;;;31.60;22.80;;;;;;;11.54;56.68;100633.36;106440;1271;139840;-77
2022/05/07 03:06:32;;;;;;;37.50;24.10;;;;;;;11.53;56.67;100639.31;106506;1272;110052;-77
2022/05/07 03:09:05;;;;;;;37.20;23.40;;;;;;;11.53;56.75;100640.54;107568;1271;138048;-78
2022/05/07 03:11:37;;;;;;;42.20;25.30;;;;;;;11.49;56.92;100638.38;106272;1271;108746;-79
2022/05/07 03:14:10;;;;;;;34.90;23.40;;;;;;;11.45;57.04;100639.34;106188;1270;96612;-77
2022/05/07 03:16:44;;;;;;;37.80;24.00;;;;;;;11.41;57.05;100639.11;106480;1271;137951;-78
2022/05/07 03:19:16;;;;;;;37.50;25.70;;;;;;;11.35;57.33;100636.17;106184;1271;109100;-78
2022/05/07 03:21:49;;;;;;;34.70;22.30;;;;;;;11.32;57.47;100634.02;107421;1270;138929;-78
2022/05/07 03:24:25;;;;;;;33.80;22.20;;;;;;;11.30;57.57;100634.40;106673;1273;107481;-78
2022/05/07 03:26:57;;;;;;;34.90;23.10;;;;;;;11.27;57.73;100638.31;107666;1271;139507;-78
2022/05/07 03:29:29;;;;;;;31.50;22.40;;;;;;;11.23;57.87;100635.15;107806;1271;94841;-77
2022/05/07 03:32:10;;;;;;;36.90;24.70;;;;;;;11.18;57.98;100638.23;107685;1271;110181;-78
2022/05/07 03:34:47;;;;;;;36.60;25.40;;;;;;;11.22;58.24;100643.70;107571;1271;138795;-77
2022/05/07 03:37:20;;;;;;;37.20;26.00;;;;;;;11.32;58.31;100650.02;107736;1271;107973;-78
2022/05/07 03:39:52;;;;;;;37.90;25.30;;;;;;;11.40;58.29;100649.07;107589;1272;137941;-77
2022/05/07 03:42:26;;;;;;;32.90;24.60;;;;;;;11.45;58.25;100651.02;107760;1271;94493;-78
2022/05/07 03:44:58;;;;;;;37.80;25.70;;;;;;;11.44;58.13;100654.17;107683;1271;138099;-78
2022/05/07 03:47:32;;;;;;;39.60;25.90;;;;;;;11.43;58.18;100658.75;107746;1271;107865;-80
2022/05/07 03:50:04;;;;;;;37.90;25.30;;;;;;;11.41;58.30;100657.60;107250;1271;108021;-79
2022/05/07 03:55:27;;;;;;;34.20;25.60;;;;;;;11.42;58.43;100667.64;107518;1271;94642;-79
2022/05/07 03:57:59;;;;;;;31.10;23.30;;;;;;;11.42;58.49;100662.77;107664;1271;138191;-78
2022/05/07 04:00:35;;;;;;;34.20;23.40;;;;;;;11.43;58.56;100667.63;107729;1271;110000;-79
2022/05/07 04:03:12;;;;;;;35.50;23.10;;;;;;;11.44;58.57;100668.80;107306;1273;139711;-78
2022/05/07 04:05:53;;;;;;;32.50;22.40;;;;;;;11.51;58.63;100669.15;106198;1271;96530;-78
2022/05/07 04:08:27;;;;;;;33.40;22.10;;;;;;;11.61;58.53;100673.20;106222;1272;96359;-78
2022/05/07 04:11:01;;;;;;;37.10;22.70;;;;;;;11.68;58.42;100671.95;107770;1271;111212;-78
2022/05/07 04:13:33;;;;;;;34.20;23.00;;;;;;;11.72;58.37;100674.95;106929;1271;108979;-78
2022/05/07 04:16:07;;;;;;;32.50;23.90;;;;;;;11.81;58.20;100672.27;106374;1271;137942;-77
2022/05/07 04:18:48;;;;;;;33.60;22.70;;;;;;;11.90;58.08;100673.92;107725;1272;94606;-78
2022/05/07 04:21:21;;;;;;;32.30;23.20;;;;;;;11.99;57.90;100672.92;107594;1271;137681;-79
2022/05/07 04:23:53;;;;;;;35.50;23.00;;;;;;;12.05;57.77;100677.63;107779;1271;111382;-80
2022/05/07 04:26:25;;;;;;;34.50;22.90;;;;;;;12.11;57.54;100676.05;107484;1271;108357;-80
2022/05/07 04:28:57;;;;;;;32.20;22.80;;;;;;;12.20;57.50;100679.09;106406;1273;107640;-80
2022/05/07 04:31:29;;;;;;;30.10;22.30;;;;;;;12.29;57.30;100681.06;106125;1272;96489;-79
2022/05/07 04:34:03;;;;;;;32.80;22.70;;;;;;;12.39;57.08;100680.05;107593;1270;138740;-80
2022/05/07 04:36:37;;;;;;;35.90;23.50;;;;;;;12.49;57.03;100682.67;107672;1271;111393;-81
2022/05/07 04:39:12;;;;;;;38.80;23.70;;;;;;;12.58;56.79;100685.35;107541;1271;139682;-80
2022/05/07 04:42:06;;;;;;;32.70;23.20;;;;;;;12.63;56.72;100684.80;107579;1271;108699;-81
2022/05/07 04:44:44;;;;;;;34.40;24.40;;;;;;;12.72;56.72;100684.85;107585;1271;141625;-80
2022/05/07 04:47:22;;;;;;;34.20;23.50;;;;;;;12.83;56.63;100683.27;107547;1271;94822;-78
2022/05/07 04:49:55;;;;;;;34.00;23.20;;;;;;;12.96;56.51;100688.39;107575;1271;108937;-78
2022/05/07 04:52:29;;;;;;;35.00;23.80;;;;;;;13.10;56.33;100689.81;107590;1271;138166;-78
2022/05/07 04:55:03;;;;;;;31.90;22.90;;;;;;;13.25;56.06;100688.95;106831;1273;108685;-79
2022/05/07 04:57:36;;;;;;;33.40;22.20;;;;;;;13.43;56.03;100691.27;107158;1271;138468;-77
2022/05/07 05:00:12;;;;;;;28.80;22.50;;;;;;;13.70;55.81;100692.73;107710;1271;94922;-78
2022/05/07 05:03:03;;;;;;;31.80;20.80;;;;;;;14.19;55.74;100696.55;106087;1271;137893;-78
2022/05/07 05:05:36;;;;;;;30.60;20.60;;;;;;;15.32;55.23;100700.52;107754;1271;108159;-79
2022/05/07 05:08:14;;;;;;;26.90;19.10;;;;;;;17.50;52.90;100692.30;106549;1271;108472;-78
2022/05/07 05:10:47;;;;;;;26.60;19.10;;;;;;;19.67;49.94;100686.70;106045;1270;137903;-79
2022/05/07 05:13:20;;;;;;;26.20;17.10;;;;;;;21.60;46.91;100681.59;106185;1271;96408;-78
2022/05/07 05:15:53;;;;;;;23.60;17.60;;;;;;;23.33;43.84;100677.15;106092;1271;137755;-79
2022/05/07 05:18:40;;;;;;;21.50;16.60;;;;;;;25.05;40.95;100673.14;106267;1271;108845;-79
2022/05/07 05:21:14;;;;;;;26.10;15.90;;;;;;;26.43;38.73;100667.85;106091;1271;138138;-79
2022/05/07 05:24:01;;;;;;;22.90;15.70;;;;;;;27.74;36.42;100668.27;106230;1271;96515;-78
2022/05/07 05:26:34;;;;;;;17.10;14.90;;;;;;;28.77;34.58;100659.26;106088;1271;138074;-78
2022/05/07 05:29:06;;;;;;;20.30;14.70;;;;;;;29.64;32.91;100662.77;106198;1270;112835;-79
2022/05/07 05:31:39;;;;;;;22.20;15.70;;;;;;;30.56;31.76;100663.96;106131;1273;109123;-78
2022/05/07 05:34:28;;;;;;;20.90;14.10;;;;;;;31.62;30.25;100668.35;107342;1271;138145;-78
2022/05/07 05:37:00;;;;;;;20.00;14.40;;;;;;;32.25;29.08;100671.18;107672;1271;94876;-79
2022/05/07 05:39:32;;;;;;;19.30;14.40;;;;;;;32.86;27.74;100671.52;107660;1273;138884;-79
2022/05/07 05:42:05;;;;;;;15.70;13.00;;;;;;;33.45;26.79;100667.59;107722;1273;109391;-79
2022/05/07 05:44:40;;;;;;;20.60;12.90;;;;;;;34.00;25.97;100664.03;107621;1273;138803;-79
2022/05/07 05:47:12;;;;;;;19.70;14.20;;;;;;;34.57;25.23;100668.38;107745;1271;108801;-79
2022/05/07 05:49:44;;;;;;;14.50;12.20;;;;;;;35.08;24.50;100669.08;107667;1273;94717;-79
2022/05/07 05:52:16;;;;;;;19.30;12.30;;;;;;;35.62;23.70;100668.64;107633;1271;138586;-79
2022/05/07 05:54:48;;;;;;;16.50;11.30;;;;;;;36.02;23.16;100659.36;107555;1271;110060;-78
2022/05/07 05:57:22;;;;;;;13.30;10.10;;;;;;;36.56;22.34;100668.56;106648;1271;137922;-79
2022/05/07 05:59:54;;;;;;;14.60;10.90;;;;;;;36.95;21.73;100673.59;107061;1271;109048;-78
2022/05/07 06:02:27;;;;;;;15.60;10.50;;;;;;;37.35;21.00;100665.23;107762;1270;94899;-79
2022/05/07 06:05:10;;;;;;;18.60;10.90;;;;;;;37.82;20.68;100664.39;107682;1272;94808;-79
2022/05/07 06:07:44;;;;;;;15.30;10.20;;;;;;;38.19;20.16;100668.30;106384;1272;111080;-79
2022/05/07 06:10:16;;;;;;;13.80;9.80;;;;;;;38.53;19.72;100666.11;106086;1272;138032;-79
2022/05/07 06:12:48;;;;;;;11.90;9.20;;;;;;;38.67;19.04;100667.08;106179;1271;108167;-78
2022/05/07 06:15:20;;;;;;;10.80;8.20;;;;;;;38.87;18.93;100668.68;106072;1272;138178;-78
2022/05/07 06:17:52;;;;;;;11.80;9.30;;;;;;;38.99;18.42;100669.09;106155;1273;96362;-78
2022/05/07 06:20:26;;;;;;;8.70;7.60;;;;;;;39.14;18.19;100670.52;106309;1272;111267;-78
2022/05/07 06:23:01;;;;;;;12.00;8.20;;;;;;;39.26;17.64;100675.20;107493;1271;107796;-78
2022/05/07 06:28:29;;;;;;;13.00;7.60;;;;;;;39.84;17.09;100678.45;107676;1270;140724;-79
2022/05/07 06:31:02;;;;;;;9.00;6.90;;;;;;;40.03;17.17;100678.64;107696;1271;94718;-79
2022/05/07 06:33:34;;;;;;;7.00;6.20;;;;;;;40.34;16.61;100680.30;107582;1273;137564;-79
2022/05/07 06:36:11;;;;;;;7.20;5.20;;;;;;;40.56;16.43;100681.30;107283;1270;109664;-78
2022/05/07 06:38:44;;;;;;;6.90;5.10;;;;;;;40.79;15.96;100679.38;106034;1273;138845;-77
2022/05/07 06:41:17;;;;;;;8.20;3.90;;;;;;;40.70;15.69;100677.59;107721;1271;95445;-79
2022/05/07 06:43:58;;;;;;;5.60;3.60;;;;;;;40.69;15.46;100679.16;106409;1273;96526;-78
2022/05/07 06:46:36;;;;;;;7.50;3.60;;;;;;;40.71;15.20;100678.13;106106;1273;137518;-78
2022/05/07 06:49:10;;;;;;;;;;;;;;;40.83;14.96;100682.79;106240;1271;109194;-78
2022/05/07 06:51:51;;;;;;;5.10;3.40;;;;;;;40.80;15.00;100681.34;106101;1270;124691;-78
2022/05/07 06:54:23;;;;;;;5.20;3.30;;;;;;;40.86;14.85;100680.89;106203;1271;96483;-78
2022/05/07 06:56:55;;;;;;;6.00;3.40;;;;;;;40.89;14.68;100681.03;106088;1271;137659;-78
2022/05/07 06:59:27;;;;;;;4.90;3.60;;;;;;;40.99;14.66;100679.63;106253;1273;110551;-78
2022/05/07 07:02:00;;;;;;;4.30;3.20;;;;;;;40.94;14.39;100680.86;106199;1272;108493;-77
2022/05/07 07:04:32;;;;;;;5.10;3.50;;;;;;;40.88;14.36;100683.23;106111;1270;137554;-78
2022/05/07 07:07:05;;;;;;;6.30;3.80;;;;;;;40.76;14.30;100686.83;106152;1271;96519;-78
2022/05/07 07:09:37;;;;;;;5.20;3.00;;;;;;;40.76;14.35;100681.02;107612;1273;137635;-78
2022/05/07 07:12:11;;;;;;;4.20;2.90;;;;;;;40.81;14.28;100682.23;107146;1271;110109;-78
2022/05/07 07:14:43;;;;;;;4.30;3.20;;;;;;;40.92;14.21;100681.70;107742;1270;138925;-79
2022/05/07 07:17:16;;;;;;;9.40;3.60;;;;;;;41.14;14.00;100681.58;106717;1271;106570;-78
2022/05/07 07:19:48;;;;;;;6.80;4.00;;;;;;;41.46;13.95;100680.98;106192;1273;96505;-78
2022/05/07 07:22:20;;;;;;;4.10;3.30;;;;;;;41.64;13.89;100679.30;106057;1270;139194;-78
2022/05/07 07:24:52;;;;;;;3.80;2.70;;;;;;;41.81;13.58;100678.05;106264;1273;111297;-80
2022/05/07 07:27:30;;;;;;;3.20;2.60;;;;;;;41.86;13.23;100684.40;107634;1271;138267;-78
2022/05/07 07:30:02;;;;;;;5.70;2.60;;;;;;;41.80;13.10;100682.52;107748;1271;109022;-78
2022/05/07 07:32:40;;;;;;;5.00;2.80;;;;;;;41.94;13.14;100678.30;107619;1271;138458;-79
2022/05/07 07:35:12;;;;;;;6.80;2.90;;;;;;;42.13;13.26;100676.54;107768;1271;94824;-79
2022/05/07 07:37:45;;;;;;;5.60;2.80;;;;;;;42.18;12.75;100677.79;107750;1271;110037;-79
2022/05/07 07:40:18;;;;;;;3.30;2.20;;;;;;;41.91;12.66;100677.27;106489;1270;137795;-78
2022/05/07 07:42:50;;;;;;;5.80;2.10;;;;;;;41.74;12.75;100678.64;107776;1271;108530;-78
2022/05/07 07:48:12;;;;;;;4.00;2.10;;;;;;;41.28;12.59;100687.90;107795;1270;94669;-78
2022/05/07 07:50:46;;;;;;;5.80;2.20;;;;;;;41.10;12.69;100688.73;107595;1270;137735;-78
2022/05/07 07:53:22;;;;;;;4.90;1.90;;;;;;;41.00;12.61;100684.84;107789;1270;109207;-78
2022/05/07 07:55:55;;;;;;;4.20;2.20;;;;;;;41.03;12.85;100684.90;107795;1270;108826;-79
2022/05/07 07:58:27;;;;;;;7.30;2.20;;;;;;;40.91;12.57;100682.81;107633;1271;137529;-78
2022/05/07 08:00:59;;;;;;;4.30;2.20;;;;;;;40.60;12.81;100682.48;107794;1270;94745;-78
2022/05/07 08:03:31;;;;;;;2.60;2.00;;;;;;;40.51;12.79;100685.66;106961;1271;137311;-78
2022/05/07 08:06:04;;;;;;;3.80;1.80;;;;;;;40.33;12.79;100680.76;106229;1273;107856;-77
2022/05/07 08:11:46;;;;;;;20.20;10.10;;;;;;;40.08;12.98;100679.40;106125;1271;96504;-70
2022/05/07 08:14:18;;;;;;;8.10;5.70;;;;;;;39.97;13.15;100681.31;106155;1273;96602;-68
2022/05/07 08:16:50;;;;;;;7.50;4.90;;;;;;;39.98;13.28;100675.80;106087;1272;137383;-69
2022/05/07 08:19:22;;;;;;;21.50;16.10;;;;;;;39.85;12.99;100677.69;106174;1271;108361;-67
2022/05/07 08:21:54;;;;;;;11.00;7.00;;;;;;;39.68;13.46;100675.69;105908;1273;188702;-66
2022/05/07 08:24:26;;;;;;;5.10;3.50;;;;;;;39.73;13.70;100673.05;106070;1273;96527;-70
2022/05/07 08:26:58;;;;;;;11.40;8.00;;;;;;;39.46;13.28;100669.60;106095;1270;137757;-67
2022/05/07 08:29:30;;;;;;;5.50;3.80;;;;;;;39.25;13.57;100672.56;106142;1272;110910;-70
2022/05/07 08:32:03;;;;;;;2.90;2.50;;;;;;;39.06;13.52;100675.57;106183;1271;108877;-68
2022/05/07 08:34:35;;;;;;;2.80;1.80;;;;;;;38.63;13.32;100675.37;105967;1273;138854;-68
2022/05/07 08:37:07;;;;;;;3.40;2.50;;;;;;;38.02;13.57;100676.35;106213;1272;96530;-68
2022/05/07 08:39:39;;;;;;;6.00;2.70;;;;;;;37.57;13.89;100676.71;107672;1271;137411;-68
2022/05/07 08:42:12;;;;;;;3.90;2.50;;;;;;;37.38;13.89;100675.77;107788;1271;109720;-68
2022/05/07 08:44:46;;;;;;;4.40;2.70;;;;;;;37.15;14.18;100677.32;106288;1271;137859;-68
2022/05/07 08:47:18;;;;;;;10.10;6.10;;;;;;;36.91;14.53;100681.54;106207;1271;107197;-69
2022/05/07 08:49:51;;;;;;;27.60;19.10;;;;;;;36.90;14.78;100678.02;106183;1273;96493;-68
2022/05/07 08:52:23;;;;;;;6.40;3.90;;;;;;;37.12;14.88;100679.66;106069;1272;137679;-68
2022/05/07 08:54:57;;;;;;;15.90;9.90;;;;;;;37.10;14.85;100675.77;106218;1272;111182;-68
2022/05/07 08:57:33;;;;;;;9.60;6.20;;;;;;;37.18;14.95;100667.05;106335;1272;137818;-68
2022/05/07 09:00:07;;;;;;;12.40;8.70;;;;;;;36.89;14.75;100675.40;106201;1271;108977;-68
2022/05/07 09:02:42;;;;;;;8.60;6.20;;;;;;;36.71;14.66;100665.21;107662;1271;138259;-68
2022/05/07 09:05:18;;;;;;;2.30;1.40;;;;;;;36.51;14.58;100675.33;107780;1271;94580;-68
2022/05/07 09:07:58;;;;;;;2.50;1.80;;;;;;;36.29;14.72;100679.85;107806;1271;111124;-69
2022/05/07 09:10:31;;;;;;;11.20;2.10;;;;;;;36.23;15.01;100672.77;107611;1271;137571;-69
2022/05/07 09:13:13;;;;;;;16.00;9.10;;;;;;;36.33;15.11;100676.02;106185;1273;108931;-68
2022/05/07 09:15:55;;;;;;;7.80;4.80;;;;;;;36.37;15.00;100676.58;107605;1271;137643;-70
2022/05/07 09:18:29;;;;;;;5.40;2.60;;;;;;;36.24;15.05;100676.98;107801;1271;94797;-69
2022/05/07 09:21:26;;;;;;;11.30;7.30;;;;;;;36.22;15.14;100672.17;107662;1271;137635;-69
2022/05/07 09:24:06;;;;;;;18.20;12.00;;;;;;;36.60;15.52;100671.66;107628;1271;109048;-70
2022/05/07 09:26:43;;;;;;;17.90;12.00;;;;;;;36.78;15.13;100672.39;107340;1271;138436;-69
2022/05/07 09:29:16;;;;;;;13.50;6.50;;;;;;;36.89;15.17;100671.84;106067;1271;96598;-69
2022/05/07 09:31:50;;;;;;;15.80;11.40;;;;;;;36.73;15.09;100670.50;106135;1272;96471;-70
2022/05/07 09:37:22;;;;;;;8.20;5.50;;;;;;;36.69;15.00;100672.63;107690;1270;108854;-70
2022/05/07 09:39:54;;;;;;;6.50;4.50;;;;;;;36.43;15.01;100669.86;106865;1270;137592;-69
2022/05/07 09:42:27;;;;;;;5.00;2.80;;;;;;;36.38;15.33;100664.88;106043;1273;96475;-69
2022/05/07 09:45:00;;;;;;;16.20;11.70;;;;;;;36.48;15.20;100665.36;106043;1271;137485;-71
2022/05/07 09:47:33;;;;;;;4.50;2.70;;;;;;;36.49;15.13;100661.17;106164;1270;110180;-68
2022/05/07 09:50:23;;;;;;;5.80;2.30;;;;;;;36.33;15.08;100660.65;106145;1271;109338;-67
2022/05/07 09:58:35;;;;;;;15.30;9.70;;;;;;;36.36;15.13;100648.12;107500;1271;138279;-75
2022/05/07 10:01:46;;;;;;;10.50;6.00;;;;;;;36.16;15.19;100651.29;107614;1270;111456;-73
2022/05/07 10:04:33;;;;;;;19.90;13.00;;;;;;;36.10;15.42;100646.72;106360;1276;137618;-73
2022/05/07 10:07:31;;;;;;;6.70;3.00;;;;;;;36.27;15.32;100640.81;105963;1276;109157;-72
2022/05/07 10:10:18;;;;;;;3.30;2.10;;;;;;;36.28;15.14;100640.86;105878;1276;137869;-71
2022/05/07 10:12:53;;;;;;;8.60;5.70;;;;;;;36.29;15.24;100635.77;107312;1276;96106;-72
2022/05/07 10:15:26;;;;;;;18.00;13.00;;;;;;;36.30;15.04;100630.67;107242;1276;136505;-72
2022/05/07 10:18:03;;;;;;;22.10;14.70;;;;;;;36.14;15.16;100629.39;106772;1276;109233;-72
2022/05/07 10:20:44;;;;;;;11.60;9.10;;;;;;;36.04;15.42;100627.29;107212;1276;138620;-72
2022/05/07 10:23:28;;;;;;;7.40;4.70;;;;;;;35.92;15.26;100626.14;106577;1276;96502;-72
2022/05/07 10:26:01;;;;;;;2.50;1.40;;;;;;;35.59;15.12;100620.77;105992;1276;96400;-72
2022/05/07 10:28:42;;;;;;;9.70;5.50;;;;;;;34.98;15.33;100621.38;105852;1276;138378;-71
2022/05/07 10:31:22;;;;;;;6.30;2.20;;;;;;;34.59;16.10;100623.51;107420;1276;109380;-72
2022/05/07 10:33:55;;;;;;;1.70;1.20;;;;;;;34.49;15.93;100624.42;107282;1276;138189;-73
2022/05/07 10:36:36;;;;;;;6.80;4.20;;;;;;;34.28;15.90;100625.48;107434;1276;94915;-72
2022/05/07 10:39:11;;;;;;;15.70;9.40;;;;;;;33.66;16.43;100625.50;107486;1271;137455;-72
2022/05/07 10:41:53;;;;;;;2.60;1.50;;;;;;;33.17;16.64;100629.54;107759;1271;111342;-72
2022/05/07 10:44:35;;;;;;;9.90;6.80;;;;;;;32.59;17.07;100634.71;107763;1271;107754;-72
2022/05/07 10:47:15;;;;;;;20.90;12.70;;;;;;;32.14;17.61;100633.42;107712;1271;109441;-72
2022/05/07 10:49:57;;;;;;;5.70;3.70;;;;;;;31.48;17.70;100634.23;107740;1271;94814;-73
2022/05/07 10:52:34;;;;;;;8.80;3.50;;;;;;;30.68;17.98;100636.92;106662;1273;137677;-74
2022/05/07 10:55:09;;;;;;;17.90;10.70;;;;;;;30.41;18.73;100638.15;106192;1271;110750;-73
2022/05/07 10:57:46;;;;;;;22.70;15.00;;;;;;;30.41;19.43;100633.67;106051;1271;137881;-74
2022/05/07 11:00:21;;;;;;;12.20;7.00;;;;;;;30.51;19.67;100636.15;107666;1273;107864;-71
2022/05/07 11:02:59;;;;;;;8.90;5.10;;;;;;;30.57;19.77;100632.19;107543;1271;140203;-72
2022/05/07 11:05:35;;;;;;;22.80;15.00;;;;;;;30.54;19.85;100634.14;106301;1273;96624;-74
2022/05/07 11:08:06;;;;;;;;;;;;;;;30.52;20.02;100634.38;106257;1271;110672;-73
2022/05/07 11:10:39;;;;;;;17.90;11.40;;;;;;;30.52;20.30;100633.63;106136;1270;123977;-73
2022/05/07 11:13:14;;;;;;;10.20;5.30;;;;;;;30.65;20.20;100630.31;106131;1271;108641;-73
2022/05/07 11:15:50;;;;;;;12.00;6.50;;;;;;;30.68;20.13;100629.00;107634;1271;138292;-72
2022/05/07 11:18:22;;;;;;;19.10;13.30;;;;;;;30.73;20.20;100629.38;107761;1271;94920;-71
2022/05/07 11:21:08;;;;;;;7.20;2.50;;;;;;;30.60;20.00;100626.91;107666;1271;138171;-71
2022/05/07 11:23:42;;;;;;;7.90;4.00;;;;;;;30.32;20.34;100627.44;107758;1271;107948;-71
2022/05/07 11:26:20;;;;;;;19.70;11.30;;;;;;;29.92;20.43;100626.23;107746;1271;108686;-71
2022/05/07 11:28:52;;;;;;;9.00;5.80;;;;;;;29.53;20.76;100627.52;107662;1271;137904;-71
2022/05/07 11:31:29;;;;;;;13.10;8.50;;;;;;;29.39;21.19;100622.51;107737;1271;94766;-71
2022/05/07 11:34:06;;;;;;;13.70;6.40;;;;;;;29.40;21.21;100620.59;107667;1271;137808;-71
2022/05/07 11:36:39;;;;;;;14.00;9.20;;;;;;;29.33;21.31;100619.90;107779;1271;108722;-71
2022/05/07 11:39:15;;;;;;;9.90;6.00;;;;;;;29.15;21.51;100617.39;107038;1271;137952;-71
2022/05/07 11:41:55;;;;;;;13.80;8.30;;;;;;;28.80;21.77;100615.85;106122;1271;96487;-73
2022/05/07 11:47:24;;;;;;;3.90;2.50;;;;;;;28.09;22.61;100620.02;106192;1271;111270;-73
2022/05/07 11:50:06;;;;;;;21.20;12.10;;;;;;;28.09;22.87;100615.52;106170;1271;108072;-73
2022/05/07 11:52:38;;;;;;;11.80;7.80;;;;;;;27.99;22.64;100615.80;106171;1271;139334;-72
2022/05/07 11:55:11;;;;;;;9.30;4.30;;;;;;;27.92;23.01;100614.48;106139;1271;97069;-72
2022/05/07 11:57:46;;;;;;;11.90;8.30;;;;;;;27.91;22.99;100607.52;107587;1271;138953;-72
2022/05/07 12:00:20;;;;;;;6.20;3.40;;;;;;;27.91;23.00;100606.23;107709;1271;110309;-72
2022/05/07 12:02:57;;;;;;;17.10;11.90;;;;;;;28.00;23.02;100607.27;106473;1271;137608;-72
2022/05/07 12:05:41;;;;;;;20.90;13.70;;;;;;;28.11;22.79;100604.92;106667;1271;108871;-72
2022/05/07 12:08:18;;;;;;;8.40;2.80;;;;;;;28.11;22.95;100604.61;107739;1271;94830;-72
2022/05/07 12:10:51;;;;;;;5.70;2.40;;;;;;;27.95;23.30;100599.23;106980;1271;137403;-72